Terminal Aerodrome Forecast
Issued by NWS Houston/Galveston, TX

Home | Current Version | Previous Version | Text Only | Print | Product List | Glossary On
Versions: 1 2 3 4 5 6 7 8 9 10 11 12 13 14 15 16 17 18 19 20 21 22 23 24 25 26 27 28 29 30 31 32 33 34 35 36 37 38 39 40
000
FTUS44 KHGX 201808 AAA
TAFGLS
TAF AMD
KGLS 201808Z 2018/2118 14014KT 6SM BR VCSH SCT007 OVC025
     FM202200 14012KT 4SM BR VCSH BKN007
     FM210000 14013KT 1SM BR VCSH OVC007
     FM211500 15011KT 6SM BR SCT007 BKN015=

USA.gov is the U.S. government's official web portal to all federal, state and local government web resources and services.